sensor_id;sensor_type;location;lat;lon;timestamp;temperature;humidity
58554;DHT22;48119;53.218;6.576;2023-04-03T00:02:18;8.20;93.60
58554;DHT22;48119;53.218;6.576;2023-04-03T00:04:44;8.20;93.60
58554;DHT22;48119;53.218;6.576;2023-04-03T00:07:10;8.10;93.50
58554;DHT22;48119;53.218;6.576;2023-04-03T00:09:36;8.10;93.50
58554;DHT22;48119;53.218;6.576;2023-04-03T00:12:02;8.10;93.40
58554;DHT22;48119;53.218;6.576;2023-04-03T00:14:29;8.00;93.30
58554;DHT22;48119;53.218;6.576;2023-04-03T00:16:55;8.10;93.30
58554;DHT22;48119;53.218;6.576;2023-04-03T00:19:20;8.10;93.20
58554;DHT22;48119;53.218;6.576;2023-04-03T00:21:46;8.10;93.00
58554;DHT22;48119;53.218;6.576;2023-04-03T00:24:15;8.10;92.90
58554;DHT22;48119;53.218;6.576;2023-04-03T00:26:41;8.10;92.70
58554;DHT22;48119;53.218;6.576;2023-04-03T00:29:07;8.10;92.60
58554;DHT22;48119;53.218;6.576;2023-04-03T00:31:33;8.00;92.40
58554;DHT22;48119;53.218;6.576;2023-04-03T00:33:58;8.00;92.40
58554;DHT22;48119;53.218;6.576;2023-04-03T00:36:24;8.00;92.20
58554;DHT22;48119;53.218;6.576;2023-04-03T00:38:51;8.00;92.10
58554;DHT22;48119;53.218;6.576;2023-04-03T00:41:17;8.00;92.10
58554;DHT22;48119;53.218;6.576;2023-04-03T00:43:42;8.00;92.10
58554;DHT22;48119;53.218;6.576;2023-04-03T00:46:08;8.00;92.00
58554;DHT22;48119;53.218;6.576;2023-04-03T00:48:45;8.00;92.00
58554;DHT22;48119;53.218;6.576;2023-04-03T00:51:18;8.00;92.00
58554;DHT22;48119;53.218;6.576;2023-04-03T00:54:02;8.00;92.10
58554;DHT22;48119;53.218;6.576;2023-04-03T00:56:31;8.00;92.00
58554;DHT22;48119;53.218;6.576;2023-04-03T01:01:48;8.00;92.30
58554;DHT22;48119;53.218;6.576;2023-04-03T01:04:35;7.90;92.40
58554;DHT22;48119;53.218;6.576;2023-04-03T01:07:09;7.90;92.30
58554;DHT22;48119;53.218;6.576;2023-04-03T01:09:36;7.90;92.40
58554;DHT22;48119;53.218;6.576;2023-04-03T01:14:50;7.90;92.50
58554;DHT22;48119;53.218;6.576;2023-04-03T01:17:46;7.90;92.50
58554;DHT22;48119;53.218;6.576;2023-04-03T01:23:11;7.70;92.40
58554;DHT22;48119;53.218;6.576;2023-04-03T01:25:50;7.80;92.60
58554;DHT22;48119;53.218;6.576;2023-04-03T01:28:36;7.80;92.70
58554;DHT22;48119;53.218;6.576;2023-04-03T01:33:53;7.80;92.80
58554;DHT22;48119;53.218;6.576;2023-04-03T01:36:22;7.70;92.80
58554;DHT22;48119;53.218;6.576;2023-04-03T01:38:48;7.70;92.70
58554;DHT22;48119;53.218;6.576;2023-04-03T01:41:15;7.70;92.70
58554;DHT22;48119;53.218;6.576;2023-04-03T01:43:41;7.70;92.80
58554;DHT22;48119;53.218;6.576;2023-04-03T01:46:07;7.70;92.70
58554;DHT22;48119;53.218;6.576;2023-04-03T01:48:33;7.70;92.80
58554;DHT22;48119;53.218;6.576;2023-04-03T01:50:59;7.70;92.70
58554;DHT22;48119;53.218;6.576;2023-04-03T01:53:25;7.70;92.80
58554;DHT22;48119;53.218;6.576;2023-04-03T01:55:51;7.70;92.70
58554;DHT22;48119;53.218;6.576;2023-04-03T01:58:17;7.70;92.70
58554;DHT22;48119;53.218;6.576;2023-04-03T02:00:43;7.60;92.70
58554;DHT22;48119;53.218;6.576;2023-04-03T02:03:08;7.60;92.80
58554;DHT22;48119;53.218;6.576;2023-04-03T02:05:34;7.60;92.90
58554;DHT22;48119;53.218;6.576;2023-04-03T02:08:00;7.50;92.90
58554;DHT22;48119;53.218;6.576;2023-04-03T02:10:26;7.50;92.90
58554;DHT22;48119;53.218;6.576;2023-04-03T02:12:52;7.50;93.00
58554;DHT22;48119;53.218;6.576;2023-04-03T02:15:23;7.50;93.10
58554;DHT22;48119;53.218;6.576;2023-04-03T02:17:49;7.50;93.20
58554;DHT22;48119;53.218;6.576;2023-04-03T02:20:15;7.40;93.20
58554;DHT22;48119;53.218;6.576;2023-04-03T02:22:41;7.40;93.20
58554;DHT22;48119;53.218;6.576;2023-04-03T02:25:07;7.40;93.20
58554;DHT22;48119;53.218;6.576;2023-04-03T02:27:33;7.40;93.20
58554;DHT22;48119;53.218;6.576;2023-04-03T02:30:02;7.50;93.30
58554;DHT22;48119;53.218;6.576;2023-04-03T02:32:31;7.40;93.30
58554;DHT22;48119;53.218;6.576;2023-04-03T02:34:57;7.30;93.30
58554;DHT22;48119;53.218;6.576;2023-04-03T02:37:23;7.30;93.30
58554;DHT22;48119;53.218;6.576;2023-04-03T02:39:48;7.30;93.30
58554;DHT22;48119;53.218;6.576;2023-04-03T02:42:14;7.30;93.30
58554;DHT22;48119;53.218;6.576;2023-04-03T02:44:43;7.30;93.40
58554;DHT22;48119;53.218;6.576;2023-04-03T02:47:10;7.20;93.50
58554;DHT22;48119;53.218;6.576;2023-04-03T02:49:38;7.20;93.50
58554;DHT22;48119;53.218;6.576;2023-04-03T02:52:04;7.20;93.70
58554;DHT22;48119;53.218;6.576;2023-04-03T02:54:34;7.20;93.70
58554;DHT22;48119;53.218;6.576;2023-04-03T02:57:00;7.10;93.80
58554;DHT22;48119;53.218;6.576;2023-04-03T02:59:26;7.20;93.80
58554;DHT22;48119;53.218;6.576;2023-04-03T03:01:52;7.20;93.90
58554;DHT22;48119;53.218;6.576;2023-04-03T03:04:18;7.20;93.90
58554;DHT22;48119;53.218;6.576;2023-04-03T03:06:44;7.10;94.00
58554;DHT22;48119;53.218;6.576;2023-04-03T03:09:09;7.10;94.40
58554;DHT22;48119;53.218;6.576;2023-04-03T03:11:35;7.20;94.10
58554;DHT22;48119;53.218;6.576;2023-04-03T03:14:01;7.20;94.10
58554;DHT22;48119;53.218;6.576;2023-04-03T03:16:27;7.10;94.30
58554;DHT22;48119;53.218;6.576;2023-04-03T03:18:53;7.10;94.20
58554;DHT22;48119;53.218;6.576;2023-04-03T03:21:19;7.10;94.20
58554;DHT22;48119;53.218;6.576;2023-04-03T03:23:44;7.10;94.20
58554;DHT22;48119;53.218;6.576;2023-04-03T03:26:11;7.10;94.30
58554;DHT22;48119;53.218;6.576;2023-04-03T03:28:37;7.00;94.40
58554;DHT22;48119;53.218;6.576;2023-04-03T03:31:06;7.00;94.50
58554;DHT22;48119;53.218;6.576;2023-04-03T03:33:35;7.10;94.60
58554;DHT22;48119;53.218;6.576;2023-04-03T03:36:01;7.00;94.60
58554;DHT22;48119;53.218;6.576;2023-04-03T03:38:27;7.00;94.60
58554;DHT22;48119;53.218;6.576;2023-04-03T03:40:53;6.90;94.80
58554;DHT22;48119;53.218;6.576;2023-04-03T03:43:19;6.90;94.90
58554;DHT22;48119;53.218;6.576;2023-04-03T03:45:50;6.80;95.30
58554;DHT22;48119;53.218;6.576;2023-04-03T03:48:16;6.80;95.20
58554;DHT22;48119;53.218;6.576;2023-04-03T03:50:42;6.70;95.10
58554;DHT22;48119;53.218;6.576;2023-04-03T03:53:08;6.70;95.10
58554;DHT22;48119;53.218;6.576;2023-04-03T03:55:34;6.70;95.00
58554;DHT22;48119;53.218;6.576;2023-04-03T03:58:00;6.70;95.00
58554;DHT22;48119;53.218;6.576;2023-04-03T04:00:29;6.70;95.00
58554;DHT22;48119;53.218;6.576;2023-04-03T04:02:55;6.70;95.10
58554;DHT22;48119;53.218;6.576;2023-04-03T04:05:24;6.70;95.10
58554;DHT22;48119;53.218;6.576;2023-04-03T04:07:50;6.70;95.10
58554;DHT22;48119;53.218;6.576;2023-04-03T04:10:16;6.60;95.20
58554;DHT22;48119;53.218;6.576;2023-04-03T04:12:42;6.60;95.30
58554;DHT22;48119;53.218;6.576;2023-04-03T04:15:08;6.50;95.30
58554;DHT22;48119;53.218;6.576;2023-04-03T04:17:34;6.50;95.40
58554;DHT22;48119;53.218;6.576;2023-04-03T04:20:02;6.50;95.40
58554;DHT22;48119;53.218;6.576;2023-04-03T04:22:28;6.50;95.40
58554;DHT22;48119;53.218;6.576;2023-04-03T04:24:54;6.50;95.40
58554;DHT22;48119;53.218;6.576;2023-04-03T04:27:20;6.60;95.40
58554;DHT22;48119;53.218;6.576;2023-04-03T04:29:45;6.60;95.30
58554;DHT22;48119;53.218;6.576;2023-04-03T04:32:11;6.50;95.40
58554;DHT22;48119;53.218;6.576;2023-04-03T04:34:37;6.50;95.40
58554;DHT22;48119;53.218;6.576;2023-04-03T04:37:03;6.50;95.50
58554;DHT22;48119;53.218;6.576;2023-04-03T04:39:28;6.50;95.50
58554;DHT22;48119;53.218;6.576;2023-04-03T04:41:54;6.50;95.50
58554;DHT22;48119;53.218;6.576;2023-04-03T04:44:20;6.50;95.70
58554;DHT22;48119;53.218;6.576;2023-04-03T04:46:46;6.40;95.60
58554;DHT22;48119;53.218;6.576;2023-04-03T04:49:12;6.50;95.70
58554;DHT22;48119;53.218;6.576;2023-04-03T04:51:40;6.40;95.70
58554;DHT22;48119;53.218;6.576;2023-04-03T04:54:06;6.40;95.80
58554;DHT22;48119;53.218;6.576;2023-04-03T04:56:32;6.40;95.90
58554;DHT22;48119;53.218;6.576;2023-04-03T04:58:58;6.40;96.00
58554;DHT22;48119;53.218;6.576;2023-04-03T05:01:24;6.40;96.00
58554;DHT22;48119;53.218;6.576;2023-04-03T05:03:50;6.30;95.90
58554;DHT22;48119;53.218;6.576;2023-04-03T05:06:15;6.30;96.00
58554;DHT22;48119;53.218;6.576;2023-04-03T05:08:41;6.30;96.10
58554;DHT22;48119;53.218;6.576;2023-04-03T05:11:07;6.30;96.20
58554;DHT22;48119;53.218;6.576;2023-04-03T05:13:33;6.30;96.20
58554;DHT22;48119;53.218;6.576;2023-04-03T05:15:59;6.30;96.10
58554;DHT22;48119;53.218;6.576;2023-04-03T05:18:24;6.30;96.20
58554;DHT22;48119;53.218;6.576;2023-04-03T05:20:50;6.20;96.20
58554;DHT22;48119;53.218;6.576;2023-04-03T05:23:17;6.20;96.30
58554;DHT22;48119;53.218;6.576;2023-04-03T05:25:43;6.20;96.20
58554;DHT22;48119;53.218;6.576;2023-04-03T05:28:11;6.20;96.30
58554;DHT22;48119;53.218;6.576;2023-04-03T05:30:37;6.20;96.30
58554;DHT22;48119;53.218;6.576;2023-04-03T05:33:03;6.20;96.30
58554;DHT22;48119;53.218;6.576;2023-04-03T05:35:29;6.20;96.40
58554;DHT22;48119;53.218;6.576;2023-04-03T05:37:55;6.10;96.30
58554;DHT22;48119;53.218;6.576;2023-04-03T05:40:21;6.20;96.30
58554;DHT22;48119;53.218;6.576;2023-04-03T05:42:47;6.20;96.30
58554;DHT22;48119;53.218;6.576;2023-04-03T05:45:13;6.30;96.30
58554;DHT22;48119;53.218;6.576;2023-04-03T05:47:38;6.30;96.40
58554;DHT22;48119;53.218;6.576;2023-04-03T05:50:05;6.30;96.40
58554;DHT22;48119;53.218;6.576;2023-04-03T05:52:36;6.30;96.40
58554;DHT22;48119;53.218;6.576;2023-04-03T05:55:03;6.30;96.40
58554;DHT22;48119;53.218;6.576;2023-04-03T05:57:29;6.20;96.50
58554;DHT22;48119;53.218;6.576;2023-04-03T05:59:55;6.20;96.50
58554;DHT22;48119;53.218;6.576;2023-04-03T06:02:23;6.20;96.60
58554;DHT22;48119;53.218;6.576;2023-04-03T06:04:54;6.20;96.60
58554;DHT22;48119;53.218;6.576;2023-04-03T06:07:22;6.20;96.60
58554;DHT22;48119;53.218;6.576;2023-04-03T06:09:50;6.20;96.60
58554;DHT22;48119;53.218;6.576;2023-04-03T06:12:16;6.20;96.50
58554;DHT22;48119;53.218;6.576;2023-04-03T06:14:42;6.20;96.50
58554;DHT22;48119;53.218;6.576;2023-04-03T06:17:08;6.20;96.40
58554;DHT22;48119;53.218;6.576;2023-04-03T06:19:40;6.20;96.40
58554;DHT22;48119;53.218;6.576;2023-04-03T06:22:06;6.30;96.50
58554;DHT22;48119;53.218;6.576;2023-04-03T06:24:33;6.20;96.50
58554;DHT22;48119;53.218;6.576;2023-04-03T06:26:59;6.30;96.60
58554;DHT22;48119;53.218;6.576;2023-04-03T06:29:25;6.30;96.60
58554;DHT22;48119;53.218;6.576;2023-04-03T06:31:51;6.30;96.50
58554;DHT22;48119;53.218;6.576;2023-04-03T06:34:17;6.40;96.50
58554;DHT22;48119;53.218;6.576;2023-04-03T06:36:44;6.30;96.40
58554;DHT22;48119;53.218;6.576;2023-04-03T06:39:15;6.40;96.50
58554;DHT22;48119;53.218;6.576;2023-04-03T06:41:41;6.40;96.50
58554;DHT22;48119;53.218;6.576;2023-04-03T06:44:07;6.40;96.40
58554;DHT22;48119;53.218;6.576;2023-04-03T06:46:37;6.40;96.40
58554;DHT22;48119;53.218;6.576;2023-04-03T06:49:03;6.40;96.30
58554;DHT22;48119;53.218;6.576;2023-04-03T06:51:30;6.40;96.20
58554;DHT22;48119;53.218;6.576;2023-04-03T06:53:59;6.40;96.10
58554;DHT22;48119;53.218;6.576;2023-04-03T06:56:26;6.40;95.90
58554;DHT22;48119;53.218;6.576;2023-04-03T06:58:53;6.40;95.80
58554;DHT22;48119;53.218;6.576;2023-04-03T07:01:42;6.40;95.80
58554;DHT22;48119;53.218;6.576;2023-04-03T07:04:08;6.50;95.90
58554;DHT22;48119;53.218;6.576;2023-04-03T07:06:35;6.50;95.80
58554;DHT22;48119;53.218;6.576;2023-04-03T07:09:01;6.50;95.60
58554;DHT22;48119;53.218;6.576;2023-04-03T07:11:27;6.50;95.50
58554;DHT22;48119;53.218;6.576;2023-04-03T07:13:53;6.60;95.50
58554;DHT22;48119;53.218;6.576;2023-04-03T07:16:19;6.60;95.40
58554;DHT22;48119;53.218;6.576;2023-04-03T07:18:46;6.60;95.30
58554;DHT22;48119;53.218;6.576;2023-04-03T07:21:12;6.60;95.20
58554;DHT22;48119;53.218;6.576;2023-04-03T07:23:38;6.70;95.20
58554;DHT22;48119;53.218;6.576;2023-04-03T07:26:05;6.70;95.20
58554;DHT22;48119;53.218;6.576;2023-04-03T07:28:32;6.70;95.20
58554;DHT22;48119;53.218;6.576;2023-04-03T07:31:04;6.70;95.10
58554;DHT22;48119;53.218;6.576;2023-04-03T07:33:31;6.70;95.10
58554;DHT22;48119;53.218;6.576;2023-04-03T07:35:57;6.70;95.00
58554;DHT22;48119;53.218;6.576;2023-04-03T07:38:23;6.70;94.90
58554;DHT22;48119;53.218;6.576;2023-04-03T07:40:51;6.70;94.80
58554;DHT22;48119;53.218;6.576;2023-04-03T07:43:19;6.70;95.00
58554;DHT22;48119;53.218;6.576;2023-04-03T07:45:46;6.80;95.20
58554;DHT22;48119;53.218;6.576;2023-04-03T07:48:16;6.80;95.00
58554;DHT22;48119;53.218;6.576;2023-04-03T07:50:43;6.80;94.80
58554;DHT22;48119;53.218;6.576;2023-04-03T07:53:09;6.80;94.70
58554;DHT22;48119;53.218;6.576;2023-04-03T07:55:36;6.90;94.60
58554;DHT22;48119;53.218;6.576;2023-04-03T07:58:12;6.90;94.50
58554;DHT22;48119;53.218;6.576;2023-04-03T08:00:40;7.00;94.30
58554;DHT22;48119;53.218;6.576;2023-04-03T08:03:06;7.00;94.10
58554;DHT22;48119;53.218;6.576;2023-04-03T08:05:37;7.00;94.00
58554;DHT22;48119;53.218;6.576;2023-04-03T08:08:04;7.00;94.10
58554;DHT22;48119;53.218;6.576;2023-04-03T08:10:30;7.10;94.20
58554;DHT22;48119;53.218;6.576;2023-04-03T08:12:59;7.10;94.00
58554;DHT22;48119;53.218;6.576;2023-04-03T08:15:25;7.10;93.90
58554;DHT22;48119;53.218;6.576;2023-04-03T08:17:52;7.20;93.70
58554;DHT22;48119;53.218;6.576;2023-04-03T08:20:18;7.20;93.50
58554;DHT22;48119;53.218;6.576;2023-04-03T08:22:44;7.20;93.30
58554;DHT22;48119;53.218;6.576;2023-04-03T08:25:10;7.30;93.20
58554;DHT22;48119;53.218;6.576;2023-04-03T08:27:35;7.30;93.30
58554;DHT22;48119;53.218;6.576;2023-04-03T08:30:02;7.30;93.30
58554;DHT22;48119;53.218;6.576;2023-04-03T08:32:29;7.30;93.20
58554;DHT22;48119;53.218;6.576;2023-04-03T08:34:55;7.40;93.30
58554;DHT22;48119;53.218;6.576;2023-04-03T08:37:21;7.40;93.20
58554;DHT22;48119;53.218;6.576;2023-04-03T08:39:47;7.50;93.10
58554;DHT22;48119;53.218;6.576;2023-04-03T08:45:21;7.50;92.90
58554;DHT22;48119;53.218;6.576;2023-04-03T08:48:19;7.60;93.00
58554;DHT22;48119;53.218;6.576;2023-04-03T08:50:50;7.60;92.80
58554;DHT22;48119;53.218;6.576;2023-04-03T08:53:21;7.70;92.60
58554;DHT22;48119;53.218;6.576;2023-04-03T08:55:49;7.80;91.90
58554;DHT22;48119;53.218;6.576;2023-04-03T08:58:28;7.80;90.30
58554;DHT22;48119;53.218;6.576;2023-04-03T09:01:26;7.90;87.30
58554;DHT22;48119;53.218;6.576;2023-04-03T09:03:53;7.90;84.50
58554;DHT22;48119;53.218;6.576;2023-04-03T09:06:29;8.00;84.30
58554;DHT22;48119;53.218;6.576;2023-04-03T09:09:33;8.00;83.20
58554;DHT22;48119;53.218;6.576;2023-04-03T09:12:34;8.00;80.40
58554;DHT22;48119;53.218;6.576;2023-04-03T09:15:15;8.00;79.40
58554;DHT22;48119;53.218;6.576;2023-04-03T09:17:49;8.10;80.90
58554;DHT22;48119;53.218;6.576;2023-04-03T09:20:33;8.20;81.00
58554;DHT22;48119;53.218;6.576;2023-04-03T09:23:39;8.20;80.30
58554;DHT22;48119;53.218;6.576;2023-04-03T09:26:19;8.20;81.20
58554;DHT22;48119;53.218;6.576;2023-04-03T09:28:47;8.20;81.70
58554;DHT22;48119;53.218;6.576;2023-04-03T09:31:25;8.20;81.60
58554;DHT22;48119;53.218;6.576;2023-04-03T09:33:57;8.30;81.50
58554;DHT22;48119;53.218;6.576;2023-04-03T09:36:39;8.30;81.60
58554;DHT22;48119;53.218;6.576;2023-04-03T09:39:12;8.40;80.90
58554;DHT22;48119;53.218;6.576;2023-04-03T09:41:38;8.40;81.70
58554;DHT22;48119;53.218;6.576;2023-04-03T09:44:21;8.50;81.20
58554;DHT22;48119;53.218;6.576;2023-04-03T09:46:47;8.60;80.00
58554;DHT22;48119;53.218;6.576;2023-04-03T09:49:13;8.60;79.40
58554;DHT22;48119;53.218;6.576;2023-04-03T09:51:40;8.60;79.40
58554;DHT22;48119;53.218;6.576;2023-04-03T09:54:31;8.60;79.60
58554;DHT22;48119;53.218;6.576;2023-04-03T09:57:04;8.70;79.10
58554;DHT22;48119;53.218;6.576;2023-04-03T09:59:57;8.70;79.90
58554;DHT22;48119;53.218;6.576;2023-04-03T10:02:38;8.80;79.80
58554;DHT22;48119;53.218;6.576;2023-04-03T10:05:34;8.90;79.70
58554;DHT22;48119;53.218;6.576;2023-04-03T10:10:34;9.00;77.20
58554;DHT22;48119;53.218;6.576;2023-04-03T10:13:07;9.00;76.30
58554;DHT22;48119;53.218;6.576;2023-04-03T10:15:41;9.00;75.20
58554;DHT22;48119;53.218;6.576;2023-04-03T10:18:26;9.10;74.30
58554;DHT22;48119;53.218;6.576;2023-04-03T10:20:55;9.20;73.00
58554;DHT22;48119;53.218;6.576;2023-04-03T10:23:37;9.20;70.80
58554;DHT22;48119;53.218;6.576;2023-04-03T10:34:31;9.40;72.00
58554;DHT22;48119;53.218;6.576;2023-04-03T10:37:20;9.50;67.00
58554;DHT22;48119;53.218;6.576;2023-04-03T10:39:57;9.50;67.40
58554;DHT22;48119;53.218;6.576;2023-04-03T10:42:42;9.50;64.50
58554;DHT22;48119;53.218;6.576;2023-04-03T10:50:44;9.60;61.60
58554;DHT22;48119;53.218;6.576;2023-04-03T10:59:15;9.70;61.40
58554;DHT22;48119;53.218;6.576;2023-04-03T11:01:47;9.70;60.20
58554;DHT22;48119;53.218;6.576;2023-04-03T11:04:16;9.70;60.80
58554;DHT22;48119;53.218;6.576;2023-04-03T11:07:20;9.80;61.10
58554;DHT22;48119;53.218;6.576;2023-04-03T11:09:50;9.80;59.60
58554;DHT22;48119;53.218;6.576;2023-04-03T11:14:48;9.90;61.10
58554;DHT22;48119;53.218;6.576;2023-04-03T11:17:31;9.80;60.10
58554;DHT22;48119;53.218;6.576;2023-04-03T11:20:21;9.90;58.80
58554;DHT22;48119;53.218;6.576;2023-04-03T11:23:21;9.90;57.70
58554;DHT22;48119;53.218;6.576;2023-04-03T11:25:53;10.00;59.70
58554;DHT22;48119;53.218;6.576;2023-04-03T11:28:19;10.00;61.00
58554;DHT22;48119;53.218;6.576;2023-04-03T11:35:51;10.10;60.00
58554;DHT22;48119;53.218;6.576;2023-04-03T11:38:23;10.20;58.50
58554;DHT22;48119;53.218;6.576;2023-04-03T11:40:53;10.30;58.60
58554;DHT22;48119;53.218;6.576;2023-04-03T11:43:41;10.30;59.20
58554;DHT22;48119;53.218;6.576;2023-04-03T11:46:10;10.30;58.70
58554;DHT22;48119;53.218;6.576;2023-04-03T11:53:54;10.40;58.80
58554;DHT22;48119;53.218;6.576;2023-04-03T12:04:17;10.50;56.40
58554;DHT22;48119;53.218;6.576;2023-04-03T12:14:52;10.60;59.40
58554;DHT22;48119;53.218;6.576;2023-04-03T12:17:26;10.60;59.90
58554;DHT22;48119;53.218;6.576;2023-04-03T12:19:52;10.70;60.70
58554;DHT22;48119;53.218;6.576;2023-04-03T12:22:20;10.70;60.90
58554;DHT22;48119;53.218;6.576;2023-04-03T12:24:48;10.70;61.00
58554;DHT22;48119;53.218;6.576;2023-04-03T12:27:34;10.80;59.30
58554;DHT22;48119;53.218;6.576;2023-04-03T12:38:26;10.60;56.80
58554;DHT22;48119;53.218;6.576;2023-04-03T12:41:19;10.60;57.00
58554;DHT22;48119;53.218;6.576;2023-04-03T12:46:52;10.60;57.50
58554;DHT22;48119;53.218;6.576;2023-04-03T12:49:40;10.70;58.60
58554;DHT22;48119;53.218;6.576;2023-04-03T12:52:35;10.70;57.80
58554;DHT22;48119;53.218;6.576;2023-04-03T12:55:18;10.70;56.80
58554;DHT22;48119;53.218;6.576;2023-04-03T12:57:46;10.70;56.40
58554;DHT22;48119;53.218;6.576;2023-04-03T13:00:29;10.70;57.00
58554;DHT22;48119;53.218;6.576;2023-04-03T13:02:56;10.70;57.20
58554;DHT22;48119;53.218;6.576;2023-04-03T13:05:22;10.70;56.60
58554;DHT22;48119;53.218;6.576;2023-04-03T13:07:52;10.70;56.50
58554;DHT22;48119;53.218;6.576;2023-04-03T13:10:20;10.70;56.00
58554;DHT22;48119;53.218;6.576;2023-04-03T13:12:53;10.70;55.60
58554;DHT22;48119;53.218;6.576;2023-04-03T13:15:30;10.70;55.90
58554;DHT22;48119;53.218;6.576;2023-04-03T13:18:10;10.70;54.80
58554;DHT22;48119;53.218;6.576;2023-04-03T13:20:48;10.70;55.50
58554;DHT22;48119;53.218;6.576;2023-04-03T13:23:17;10.70;55.60
58554;DHT22;48119;53.218;6.576;2023-04-03T13:25:47;10.80;55.20
58554;DHT22;48119;53.218;6.576;2023-04-03T13:28:17;10.80;55.70
58554;DHT22;48119;53.218;6.576;2023-04-03T13:33:55;10.80;56.60
58554;DHT22;48119;53.218;6.576;2023-04-03T13:36:24;10.80;56.30
58554;DHT22;48119;53.218;6.576;2023-04-03T13:39:05;10.80;56.60
58554;DHT22;48119;53.218;6.576;2023-04-03T13:41:37;10.80;56.90
58554;DHT22;48119;53.218;6.576;2023-04-03T13:46:52;10.80;56.10
58554;DHT22;48119;53.218;6.576;2023-04-03T13:49:35;10.80;56.70
58554;DHT22;48119;53.218;6.576;2023-04-03T13:52:22;10.80;56.80
58554;DHT22;48119;53.218;6.576;2023-04-03T13:54:53;10.90;57.10
58554;DHT22;48119;53.218;6.576;2023-04-03T13:57:20;10.80;57.70
58554;DHT22;48119;53.218;6.576;2023-04-03T13:59:46;10.80;58.00
58554;DHT22;48119;53.218;6.576;2023-04-03T14:02:14;10.80;58.20
58554;DHT22;48119;53.218;6.576;2023-04-03T14:07:10;10.80;58.60
58554;DHT22;48119;53.218;6.576;2023-04-03T14:09:37;10.80;59.20
58554;DHT22;48119;53.218;6.576;2023-04-03T14:12:07;10.80;60.40
58554;DHT22;48119;53.218;6.576;2023-04-03T14:14:35;10.80;61.90
58554;DHT22;48119;53.218;6.576;2023-04-03T14:17:10;10.80;61.80
58554;DHT22;48119;53.218;6.576;2023-04-03T14:19:38;10.80;61.00
58554;DHT22;48119;53.218;6.576;2023-04-03T14:22:19;10.70;61.40
58554;DHT22;48119;53.218;6.576;2023-04-03T14:24:47;10.80;62.40
58554;DHT22;48119;53.218;6.576;2023-04-03T14:27:22;10.80;63.30
58554;DHT22;48119;53.218;6.576;2023-04-03T14:29:52;10.70;63.10
58554;DHT22;48119;53.218;6.576;2023-04-03T14:32:20;10.70;63.70
58554;DHT22;48119;53.218;6.576;2023-04-03T14:34:47;10.70;64.20
58554;DHT22;48119;53.218;6.576;2023-04-03T14:37:17;10.70;64.40
58554;DHT22;48119;53.218;6.576;2023-04-03T14:39:43;10.70;64.60
58554;DHT22;48119;53.218;6.576;2023-04-03T14:42:30;10.70;65.30
58554;DHT22;48119;53.218;6.576;2023-04-03T14:44:57;10.70;65.00
58554;DHT22;48119;53.218;6.576;2023-04-03T14:47:26;10.70;65.50
58554;DHT22;48119;53.218;6.576;2023-04-03T14:49:53;10.80;66.00
58554;DHT22;48119;53.218;6.576;2023-04-03T14:52:26;10.70;65.70
58554;DHT22;48119;53.218;6.576;2023-04-03T14:54:53;10.70;65.60
58554;DHT22;48119;53.218;6.576;2023-04-03T14:57:23;10.70;65.80
58554;DHT22;48119;53.218;6.576;2023-04-03T14:59:49;10.70;66.10
58554;DHT22;48119;53.218;6.576;2023-04-03T15:04:57;10.80;66.10
58554;DHT22;48119;53.218;6.576;2023-04-03T15:07:25;10.80;65.00
58554;DHT22;48119;53.218;6.576;2023-04-03T15:09:52;10.80;63.80
58554;DHT22;48119;53.218;6.576;2023-04-03T15:12:18;10.80;62.60
58554;DHT22;48119;53.218;6.576;2023-04-03T15:14:44;10.80;63.40
58554;DHT22;48119;53.218;6.576;2023-04-03T15:17:18;10.80;63.40
58554;DHT22;48119;53.218;6.576;2023-04-03T15:19:45;10.80;63.40
58554;DHT22;48119;53.218;6.576;2023-04-03T15:22:16;10.80;63.40
58554;DHT22;48119;53.218;6.576;2023-04-03T15:24:43;10.80;62.60
58554;DHT22;48119;53.218;6.576;2023-04-03T15:27:10;10.90;62.40
58554;DHT22;48119;53.218;6.576;2023-04-03T15:29:37;10.80;61.90
58554;DHT22;48119;53.218;6.576;2023-04-03T15:32:04;10.90;62.00
58554;DHT22;48119;53.218;6.576;2023-04-03T15:34:30;10.90;62.00
58554;DHT22;48119;53.218;6.576;2023-04-03T15:36:56;10.90;62.60
58554;DHT22;48119;53.218;6.576;2023-04-03T15:39:22;10.90;63.70
58554;DHT22;48119;53.218;6.576;2023-04-03T15:41:49;10.90;64.20
58554;DHT22;48119;53.218;6.576;2023-04-03T15:44:17;10.90;64.70
58554;DHT22;48119;53.218;6.576;2023-04-03T15:46:44;10.90;64.70
58554;DHT22;48119;53.218;6.576;2023-04-03T15:49:11;10.90;64.20
58554;DHT22;48119;53.218;6.576;2023-04-03T15:51:37;10.80;62.60
58554;DHT22;48119;53.218;6.576;2023-04-03T15:54:03;10.80;61.50
58554;DHT22;48119;53.218;6.576;2023-04-03T15:56:29;10.80;62.60
58554;DHT22;48119;53.218;6.576;2023-04-03T15:58:55;10.80;64.00
58554;DHT22;48119;53.218;6.576;2023-04-03T16:01:21;10.90;64.60
58554;DHT22;48119;53.218;6.576;2023-04-03T16:03:47;10.70;65.10
58554;DHT22;48119;53.218;6.576;2023-04-03T16:06:14;10.70;66.50
58554;DHT22;48119;53.218;6.576;2023-04-03T16:08:41;10.80;65.70
58554;DHT22;48119;53.218;6.576;2023-04-03T16:11:08;10.80;64.10
58554;DHT22;48119;53.218;6.576;2023-04-03T16:13:34;10.70;63.00
58554;DHT22;48119;53.218;6.576;2023-04-03T16:16:00;10.80;63.30
58554;DHT22;48119;53.218;6.576;2023-04-03T16:18:27;10.80;63.30
58554;DHT22;48119;53.218;6.576;2023-04-03T16:20:54;10.80;63.10
58554;DHT22;48119;53.218;6.576;2023-04-03T16:23:20;10.80;63.30
58554;DHT22;48119;53.218;6.576;2023-04-03T16:25:47;10.70;64.30
58554;DHT22;48119;53.218;6.576;2023-04-03T16:28:14;10.70;64.50
58554;DHT22;48119;53.218;6.576;2023-04-03T16:30:44;10.70;64.40
58554;DHT22;48119;53.218;6.576;2023-04-03T16:33:12;10.70;63.70
58554;DHT22;48119;53.218;6.576;2023-04-03T16:35:38;10.70;63.50
58554;DHT22;48119;53.218;6.576;2023-04-03T16:38:04;10.70;63.80
58554;DHT22;48119;53.218;6.576;2023-04-03T16:40:31;10.70;65.20
58554;DHT22;48119;53.218;6.576;2023-04-03T16:42:56;10.70;67.40
58554;DHT22;48119;53.218;6.576;2023-04-03T16:45:22;10.60;69.30
58554;DHT22;48119;53.218;6.576;2023-04-03T16:47:48;10.60;70.60
58554;DHT22;48119;53.218;6.576;2023-04-03T16:50:14;10.60;71.90
58554;DHT22;48119;53.218;6.576;2023-04-03T16:52:40;10.60;72.40
58554;DHT22;48119;53.218;6.576;2023-04-03T16:55:07;10.50;73.50
58554;DHT22;48119;53.218;6.576;2023-04-03T16:57:32;10.50;74.20
58554;DHT22;48119;53.218;6.576;2023-04-03T16:59:59;10.40;74.70
58554;DHT22;48119;53.218;6.576;2023-04-03T17:02:24;10.50;75.50
58554;DHT22;48119;53.218;6.576;2023-04-03T17:04:52;10.40;76.10
58554;DHT22;48119;53.218;6.576;2023-04-03T17:07:22;10.30;76.40
58554;DHT22;48119;53.218;6.576;2023-04-03T17:09:48;10.30;76.90
58554;DHT22;48119;53.218;6.576;2023-04-03T17:12:15;10.30;76.60
58554;DHT22;48119;53.218;6.576;2023-04-03T17:14:41;10.20;77.10
58554;DHT22;48119;53.218;6.576;2023-04-03T17:17:07;10.20;77.20
58554;DHT22;48119;53.218;6.576;2023-04-03T17:19:35;10.20;77.40
58554;DHT22;48119;53.218;6.576;2023-04-03T17:22:01;10.10;77.70
58554;DHT22;48119;53.218;6.576;2023-04-03T17:24:27;10.10;78.10